Menai Bridge, United Kingdom
Current Conditions -  °F | °C
As of 11:50 AM on Saturday 20 Dec 2014 (Local Time) from EGOV Reporting Station
Broken Clouds Broken Clouds  
Wind Chill: 42°   Ceiling: 2800
Heat Index: 48°   Visibility: 6mi
Dew Point: 41°   Wind: 18mph
Humidity: 76%   Direction: 280°W
Pressure: 30.3"   Gusts: NA
Location:  53.23°N, 4.17°W
Report Text: EGOV 201150Z AUTO 28016KT 9999 SCT018/// BKN028/// 09/05 Q1026
Loading
Personal Weather Stations






























Interactive Weather Map New forecast layout! Learn more

10-Day Weather Forecast

Advertisements
Track Severe Weather on mobile